Time;durP1;ratioP1;P1;durP2;ratioP2;P2;SDS_P1;SDS_P2;PMS_P1;PMS_P2;Temp;Humidity;BMP_temperature;BMP_pressure;BME280_temperature;BME280_humidity;BME280_pressure;Samples;Min_cycle;Max_cycle;Signal;HPM_P1;HPM_P2
2022/03/16 00:02:00;;;;;;;21.53;19.33;;;;;;;4.79;91.04;102480.72;5055223;28;20028;-34
2022/03/16 00:04:26;;;;;;;24.07;20.20;;;;;;;4.74;91.39;102474.97;5055936;28;20053;-35
2022/03/16 00:06:51;;;;;;;22.77;20.03;;;;;;;4.68;91.89;102475.56;5055581;28;20029;-35
2022/03/16 00:09:16;;;;;;;23.20;20.53;;;;;;;4.68;93.19;102454.13;5054953;28;20416;-34
2022/03/16 00:11:42;;;;;;;23.00;20.50;;;;;;;4.74;93.10;102468.78;5055417;28;20110;-35
2022/03/16 00:14:07;;;;;;;22.50;20.03;;;;;;;4.74;92.99;102480.34;5054801;28;20497;-35
2022/03/16 00:16:32;;;;;;;20.40;18.30;;;;;;;4.79;93.01;102472.69;5055905;28;20028;-35
2022/03/16 00:18:58;;;;;;;21.90;19.63;;;;;;;4.84;93.10;102474.91;5055100;28;20097;-35
2022/03/16 00:21:23;;;;;;;21.97;19.53;;;;;;;4.83;93.44;102475.88;5055018;28;20044;-35
2022/03/16 00:23:49;;;;;;;22.33;19.93;;;;;;;4.82;93.35;102477.72;5054920;28;20039;-35
2022/03/16 00:26:14;;;;;;;21.77;19.48;;;;;;;4.80;93.53;102479.72;5055631;28;20457;-35
2022/03/16 00:28:40;;;;;;;21.55;19.27;;;;;;;4.73;92.99;102475.94;5054960;28;20029;-35
2022/03/16 00:31:05;;;;;;;21.70;19.40;;;;;;;4.74;93.17;102476.81;5055680;28;20078;-35
2022/03/16 00:33:31;;;;;;;21.80;19.53;;;;;;;4.59;93.34;102463.13;5055283;28;20029;-35
2022/03/16 00:35:57;;;;;;;23.65;20.40;;;;;;;4.64;93.94;102479.56;5054698;28;20060;-35
2022/03/16 00:38:22;;;;;;;23.63;21.23;;;;;;;4.70;94.80;102478.13;5054658;28;20083;-35
2022/03/16 00:40:48;;;;;;;22.97;20.43;;;;;;;4.65;94.75;102474.06;5053630;28;20025;-35
2022/03/16 00:43:14;;;;;;;23.33;20.77;;;;;;;4.67;94.56;102489.13;5054941;28;20040;-35
2022/03/16 00:45:39;;;;;;;;;;;;;;;4.76;93.86;102489.06;5054967;28;20033;-35
2022/03/16 00:48:05;;;;;;;19.42;17.50;;;;;;;4.68;94.29;102491.66;5054289;28;19923;-35
2022/03/16 00:50:32;;;;;;;22.27;19.67;;;;;;;4.62;94.52;102482.38;5055221;28;20029;-35
2022/03/16 00:52:57;;;;;;;21.00;18.50;;;;;;;4.54;94.58;102474.28;5054344;28;20028;-35
2022/03/16 00:55:23;;;;;;;20.52;18.42;;;;;;;4.66;94.09;102482.94;5054384;28;20458;-35
2022/03/16 00:57:48;;;;;;;21.37;18.50;;;;;;;4.49;94.30;102467.66;5055164;28;20033;-35
2022/03/16 01:00:13;;;;;;;22.00;19.60;;;;;;;4.61;95.13;102487.91;5054189;28;20118;-35
2022/03/16 01:02:39;;;;;;;21.02;18.85;;;;;;;4.57;95.52;102473.13;5054775;28;20111;-35
2022/03/16 01:05:05;;;;;;;23.23;19.10;;;;;;;4.50;95.05;102459.50;5054486;28;20033;-35
2022/03/16 01:07:31;;;;;;;21.48;19.27;;;;;;;4.45;94.49;102469.00;5053752;28;20116;-35
2022/03/16 01:09:56;;;;;;;23.45;21.00;;;;;;;4.52;94.94;102476.25;5054116;28;20056;-35
2022/03/16 01:12:22;;;;;;;22.73;20.40;;;;;;;4.49;95.69;102476.56;5053813;28;20048;-35
2022/03/16 01:14:47;;;;;;;23.50;20.97;;;;;;;4.50;96.92;102466.69;5053825;28;20028;-35
2022/03/16 01:17:13;;;;;;;21.80;19.60;;;;;;;4.52;96.90;102453.97;5052995;28;20298;-35
2022/03/16 01:19:38;;;;;;;23.30;20.67;;;;;;;4.50;96.53;102454.13;5054559;28;20029;-35
2022/03/16 01:22:05;;;;;;;23.17;20.77;;;;;;;4.58;97.51;102464.91;5053779;28;20060;-35
2022/03/16 01:24:31;;;;;;;22.60;20.25;;;;;;;4.57;97.47;102465.91;5054445;28;20041;-35
2022/03/16 01:26:57;;;;;;;21.45;19.25;;;;;;;4.55;96.60;102462.56;5054317;28;20036;-35
2022/03/16 01:29:24;;;;;;;22.35;20.05;;;;;;;4.53;96.68;102461.00;5053532;28;20061;-35
2022/03/16 01:31:53;;;;;;;24.63;21.15;;;;;;;4.44;97.27;102460.13;5053977;28;20134;-35
2022/03/16 01:34:19;;;;;;;21.75;19.45;;;;;;;4.49;97.07;102459.63;5053379;28;20043;-35
2022/03/16 01:36:44;;;;;;;21.83;19.52;;;;;;;4.47;96.88;102456.28;5053738;28;20033;-35
2022/03/16 01:39:10;;;;;;;21.00;18.67;;;;;;;4.41;97.06;102447.00;5053323;28;20060;-35
2022/03/16 01:41:35;;;;;;;20.80;18.60;;;;;;;4.44;97.37;102457.44;5054317;28;20033;-35
2022/03/16 01:44:01;;;;;;;21.65;19.35;;;;;;;4.45;97.34;102455.59;5053683;28;20028;-35
2022/03/16 01:46:27;;;;;;;21.13;18.60;;;;;;;4.39;97.55;102439.13;5053641;28;20530;-35
2022/03/16 01:48:53;;;;;;;21.05;18.88;;;;;;;4.45;98.09;102444.88;5053625;28;20424;-35
2022/03/16 01:51:19;;;;;;;20.48;18.27;;;;;;;4.30;97.80;102437.34;5053690;28;20121;-35
2022/03/16 01:53:44;;;;;;;20.52;18.30;;;;;;;4.34;97.97;102427.16;5053043;28;20474;-35
2022/03/16 01:56:10;;;;;;;20.77;18.60;;;;;;;4.37;97.99;102442.94;5053275;28;20114;-35
2022/03/16 01:58:35;;;;;;;20.23;18.00;;;;;;;4.41;97.92;102435.47;5053203;28;20029;-35
2022/03/16 02:01:01;;;;;;;20.15;18.15;;;;;;;4.38;98.06;102436.59;5053157;28;20025;-35
2022/03/16 02:03:27;;;;;;;18.83;16.90;;;;;;;4.31;97.73;102432.84;5053840;28;20032;-35
2022/03/16 02:05:52;;;;;;;20.60;18.15;;;;;;;4.36;98.15;102431.38;5053229;28;20029;-35
2022/03/16 02:08:18;;;;;;;21.50;17.40;;;;;;;4.30;98.69;102418.63;5053085;28;20017;-35
2022/03/16 02:10:43;;;;;;;19.27;17.33;;;;;;;4.32;99.28;102427.31;5051895;28;20275;-35
2022/03/16 02:13:10;;;;;;;19.13;17.23;;;;;;;4.11;99.14;102405.34;5053052;28;20037;-35
2022/03/16 02:15:36;;;;;;;17.50;15.73;;;;;;;4.15;98.89;102393.34;5053612;28;20032;-35
2022/03/16 02:18:02;;;;;;;20.85;17.80;;;;;;;4.30;100.00;102423.97;5052714;28;20028;-35
2022/03/16 02:20:27;;;;;;;20.95;17.50;;;;;;;4.27;100.00;102413.53;5051798;28;20388;-35
2022/03/16 02:22:57;;;;;;;22.80;19.73;;;;;;;4.25;100.00;102407.50;5053029;28;20103;-35
2022/03/16 02:25:23;;;;;;;20.98;18.73;;;;;;;4.18;100.00;102397.53;5053414;28;20040;-35
2022/03/16 02:27:49;;;;;;;18.48;16.42;;;;;;;4.28;100.00;102412.53;5053393;28;20083;-35
2022/03/16 02:30:15;;;;;;;21.33;19.08;;;;;;;4.26;100.00;102406.50;5052829;28;20037;-35
2022/03/16 02:32:40;;;;;;;21.53;18.47;;;;;;;4.28;100.00;102409.03;5052539;28;20523;-35
2022/03/16 02:35:06;;;;;;;20.67;18.38;;;;;;;4.23;100.00;102398.78;5052854;28;20061;-35
2022/03/16 02:37:35;;;;;;;20.90;18.05;;;;;;;4.22;100.00;102399.78;5052325;28;20040;-35
2022/03/16 02:40:01;;;;;;;23.20;19.10;;;;;;;4.22;100.00;102405.13;5052532;28;20033;-35
2022/03/16 02:42:27;;;;;;;21.17;17.85;;;;;;;4.22;100.00;102388.22;5053360;28;20025;-34
2022/03/16 02:44:52;;;;;;;21.07;18.33;;;;;;;4.24;100.00;102396.94;5052979;28;20029;-35
2022/03/16 02:47:17;;;;;;;21.07;18.57;;;;;;;4.26;100.00;102401.16;5052817;28;20279;-35
2022/03/16 02:49:42;;;;;;;19.50;17.40;;;;;;;4.27;100.00;102393.97;5053382;28;20112;-35
2022/03/16 02:52:09;;;;;;;20.00;17.93;;;;;;;4.33;100.00;102406.75;5052613;28;20071;-35
2022/03/16 02:54:35;;;;;;;20.48;18.27;;;;;;;4.33;100.00;102412.09;5052737;28;20078;-35
2022/03/16 02:57:00;;;;;;;20.77;17.42;;;;;;;4.28;100.00;102399.16;5052394;28;20111;-35
2022/03/16 02:59:26;;;;;;;21.20;16.88;;;;;;;4.27;100.00;102407.34;5053398;28;20033;-35
2022/03/16 03:01:52;;;;;;;21.50;17.90;;;;;;;4.24;99.97;102408.47;5052229;28;20488;-35
2022/03/16 03:04:17;;;;;;;19.55;16.88;;;;;;;4.25;99.91;102404.84;5054529;28;20400;-35
2022/03/16 03:06:42;;;;;;;19.40;17.33;;;;;;;4.27;100.00;102408.19;5057198;28;20036;-35
2022/03/16 03:09:08;;;;;;;18.53;16.37;;;;;;;4.18;99.77;102406.41;5056438;28;20033;-35
2022/03/16 03:11:33;;;;;;;18.07;16.20;;;;;;;4.18;100.00;102401.06;5056858;28;20126;-35
2022/03/16 03:13:59;;;;;;;18.70;16.80;;;;;;;4.14;100.00;102402.34;5056255;28;20032;-35
2022/03/16 03:16:24;;;;;;;18.67;16.30;;;;;;;4.08;100.00;102398.44;5056996;28;20029;-35
2022/03/16 03:18:49;;;;;;;20.20;18.20;;;;;;;4.12;100.00;102393.63;5056415;28;20154;-35
2022/03/16 03:21:15;;;;;;;18.67;16.77;;;;;;;4.15;100.00;102396.03;5056195;28;20400;-34
2022/03/16 03:23:40;;;;;;;19.43;16.87;;;;;;;4.10;100.00;102387.59;5056590;28;20195;-34
2022/03/16 03:26:06;;;;;;;18.43;16.60;;;;;;;4.12;100.00;102399.00;5055206;28;20052;-34
2022/03/16 03:28:31;;;;;;;17.43;15.63;;;;;;;4.14;100.00;102397.00;5056337;28;20021;-34
2022/03/16 03:30:56;;;;;;;18.23;16.27;;;;;;;4.12;100.00;102393.63;5056428;28;20363;-34
2022/03/16 03:33:22;;;;;;;18.50;16.47;;;;;;;4.07;100.00;102401.28;5055930;28;20025;-34
2022/03/16 03:35:49;;;;;;;18.63;16.73;;;;;;;4.03;100.00;102397.22;5055647;28;20025;-34
2022/03/16 03:38:14;;;;;;;18.30;16.40;;;;;;;3.94;100.00;102396.28;5055774;28;20033;-34
2022/03/16 03:40:40;;;;;;;21.60;16.70;;;;;;;3.88;100.00;102407.59;5056017;28;20056;-34
2022/03/16 03:43:05;;;;;;;17.93;16.13;;;;;;;3.92;100.00;102410.81;5056569;28;20033;-34
2022/03/16 03:45:31;;;;;;;19.13;16.93;;;;;;;3.85;100.00;102408.72;5055986;28;20029;-34
2022/03/16 03:47:57;;;;;;;18.25;16.35;;;;;;;3.86;100.00;102406.91;5055403;28;20048;-35
2022/03/16 03:50:22;;;;;;;19.75;17.73;;;;;;;3.75;100.00;102407.91;5056337;28;20033;-33
2022/03/16 03:52:48;;;;;;;18.35;16.45;;;;;;;3.61;100.00;102371.81;5055563;28;20033;-33
2022/03/16 03:55:13;;;;;;;19.60;17.60;;;;;;;3.77;100.00;102405.13;5055227;28;20404;-35
2022/03/16 03:57:38;;;;;;;19.83;17.83;;;;;;;3.75;100.00;102399.06;5055116;28;20029;-35
2022/03/16 04:00:05;;;;;;;18.93;16.80;;;;;;;3.79;100.00;102409.31;5056233;28;20035;-34
2022/03/16 04:02:30;;;;;;;19.33;17.38;;;;;;;3.78;100.00;102402.28;5055293;28;20036;-34
2022/03/16 04:04:55;;;;;;;22.57;20.27;;;;;;;3.70;100.00;102404.84;5055363;28;20474;-34
2022/03/16 04:07:20;;;;;;;18.87;16.93;;;;;;;3.70;100.00;102395.97;5054976;28;20031;-34
2022/03/16 04:09:48;;;;;;;20.00;17.80;;;;;;;3.67;100.00;102397.13;5055554;28;20021;-35
2022/03/16 04:12:14;;;;;;;19.73;17.48;;;;;;;3.73;100.00;102403.72;5055631;28;20025;-34
2022/03/16 04:14:40;;;;;;;21.05;18.95;;;;;;;3.66;100.00;102394.59;5054895;28;20039;-34
2022/03/16 04:17:05;;;;;;;21.03;18.83;;;;;;;3.65;100.00;102399.09;5055121;28;20070;-34
2022/03/16 04:19:30;;;;;;;19.47;17.47;;;;;;;3.69;100.00;102397.81;5055796;28;20029;-34
2022/03/16 04:21:56;;;;;;;20.47;18.33;;;;;;;3.68;100.00;102409.50;5054960;28;20029;-34
2022/03/16 04:24:21;;;;;;;20.13;18.00;;;;;;;3.63;100.00;102405.59;5055203;28;20020;-34
2022/03/16 04:26:46;;;;;;;21.27;18.97;;;;;;;3.43;100.00;102375.41;5055019;28;20103;-34
2022/03/16 04:29:12;;;;;;;20.50;18.43;;;;;;;3.65;100.00;102403.59;5054489;28;20139;-34
2022/03/16 04:31:37;;;;;;;23.73;21.10;;;;;;;3.58;100.00;102390.00;5055116;28;20056;-34
2022/03/16 04:34:02;;;;;;;21.70;19.50;;;;;;;3.66;100.00;102408.81;5054760;28;20167;-34
2022/03/16 04:36:29;;;;;;;24.43;21.27;;;;;;;3.56;100.00;102408.88;5054715;28;20485;-34
2022/03/16 04:38:55;;;;;;;21.92;19.60;;;;;;;3.47;100.00;102379.47;5054617;28;20044;-34
2022/03/16 04:41:21;;;;;;;22.58;20.27;;;;;;;3.52;100.00;102394.09;5054535;28;20064;-34
2022/03/16 04:43:46;;;;;;;23.00;19.48;;;;;;;3.61;100.00;102403.03;5054826;28;20061;-34
2022/03/16 04:46:12;;;;;;;23.53;21.07;;;;;;;3.62;100.00;102399.41;5054535;28;20458;-34
2022/03/16 04:48:37;;;;;;;23.60;20.87;;;;;;;3.54;100.00;102383.25;5054125;28;20137;-34
2022/03/16 04:51:03;;;;;;;21.80;19.50;;;;;;;3.61;100.00;102398.56;5054399;28;20527;-34
2022/03/16 04:53:28;;;;;;;25.07;22.23;;;;;;;3.57;100.00;102393.66;5054471;28;20381;-34
2022/03/16 04:55:54;;;;;;;23.42;20.27;;;;;;;3.52;100.00;102387.91;5054164;28;20385;-34
2022/03/16 04:58:19;;;;;;;23.97;21.47;;;;;;;3.50;100.00;102382.69;5054396;28;20029;-34
2022/03/16 05:00:44;;;;;;;25.30;22.67;;;;;;;3.55;100.00;102393.78;5054745;28;20079;-34
2022/03/16 05:03:10;;;;;;;24.83;22.20;;;;;;;3.55;100.00;102395.63;5053787;28;20032;-35
2022/03/16 05:05:35;;;;;;;25.95;23.17;;;;;;;3.53;100.00;102384.25;5054151;28;20142;-34
2022/03/16 05:08:01;;;;;;;24.30;21.80;;;;;;;3.52;100.00;102377.22;5053861;28;20136;-34
2022/03/16 05:10:26;;;;;;;24.70;22.10;;;;;;;3.53;100.00;102386.91;5053580;28;20474;-35
2022/03/16 05:12:51;;;;;;;22.80;20.33;;;;;;;3.62;100.00;102391.38;5052227;28;20135;-34
2022/03/16 05:15:18;;;;;;;28.43;23.63;;;;;;;3.56;100.00;102386.59;5054212;28;20025;-35
2022/03/16 05:17:44;;;;;;;24.48;21.92;;;;;;;3.56;100.00;102392.81;5054038;28;20390;-34
2022/03/16 05:20:10;;;;;;;;;;;;;;;3.58;100.00;102390.81;5054403;28;20086;-35
2022/03/16 05:22:44;;;;;;;24.63;21.02;;;;;;;3.54;100.00;102404.63;5053614;28;20014;-34
2022/03/16 05:25:12;;;;;;;23.05;20.60;;;;;;;3.44;100.00;102382.44;5053953;28;20029;-35
2022/03/16 05:27:38;;;;;;;23.38;20.88;;;;;;;3.57;100.00;102393.66;5051699;28;20032;-34
2022/03/16 05:30:05;;;;;;;25.35;22.60;;;;;;;3.52;100.00;102390.59;5053758;28;20385;-34
2022/03/16 05:32:33;;;;;;;26.73;23.90;;;;;;;3.46;100.00;102381.28;5053348;28;20102;-34
2022/03/16 05:34:58;;;;;;;24.77;21.85;;;;;;;3.47;100.00;102383.00;5053870;28;20025;-34
2022/03/16 05:37:23;;;;;;;23.90;21.30;;;;;;;3.54;100.00;102392.09;5053092;28;20134;-34
2022/03/16 05:39:49;;;;;;;23.13;20.67;;;;;;;3.44;100.00;102371.75;5053378;28;20036;-34
2022/03/16 05:42:14;;;;;;;23.37;20.43;;;;;;;3.50;100.00;102371.97;5053791;28;20025;-34
2022/03/16 05:44:40;;;;;;;23.73;20.87;;;;;;;3.35;100.00;102344.88;5053767;28;20024;-35
2022/03/16 05:47:05;;;;;;;23.40;19.93;;;;;;;3.55;100.00;102383.09;5053737;28;20037;-34
2022/03/16 05:49:31;;;;;;;25.48;22.85;;;;;;;3.50;100.00;102385.34;5053693;28;20096;-35
2022/03/16 05:51:56;;;;;;;20.57;18.20;;;;;;;3.58;100.00;102390.00;5053258;28;20095;-34
2022/03/16 05:54:21;;;;;;;23.43;19.60;;;;;;;3.49;100.00;102369.47;5051983;28;20064;-34
2022/03/16 05:56:46;;;;;;;21.03;18.83;;;;;;;3.59;100.00;102380.97;5053647;28;20115;-34
2022/03/16 05:59:12;;;;;;;20.93;18.33;;;;;;;3.59;100.00;102386.31;5053021;28;20444;-35
2022/03/16 06:01:37;;;;;;;25.80;20.30;;;;;;;3.56;100.00;102382.13;5053223;28;20481;-35
2022/03/16 06:04:03;;;;;;;19.83;17.73;;;;;;;3.61;100.00;102385.19;5052970;28;20412;-35
2022/03/16 06:06:30;;;;;;;20.27;18.08;;;;;;;3.63;100.00;102386.88;5053444;28;20040;-35
2022/03/16 06:08:56;;;;;;;18.30;15.95;;;;;;;3.57;100.00;102373.09;5052995;28;20424;-35
2022/03/16 06:11:21;;;;;;;19.73;17.67;;;;;;;3.67;100.00;102394.47;5052961;28;20029;-35
2022/03/16 06:13:47;;;;;;;19.40;16.90;;;;;;;3.65;100.00;102377.69;5053353;28;20327;-35
2022/03/16 06:16:12;;;;;;;19.07;17.00;;;;;;;3.54;100.00;102359.16;5052290;28;20057;-35
2022/03/16 06:18:38;;;;;;;19.03;15.97;;;;;;;3.74;100.00;102389.34;5053250;28;20036;-35
2022/03/16 06:21:03;;;;;;;17.57;14.97;;;;;;;3.80;100.00;102396.75;5053389;28;20287;-35
2022/03/16 06:23:29;;;;;;;16.77;14.97;;;;;;;3.83;100.00;102405.34;5052553;28;20444;-34
2022/03/16 06:25:54;;;;;;;17.77;13.98;;;;;;;3.82;100.00;102395.66;5052917;28;20029;-34
2022/03/16 06:28:20;;;;;;;15.93;14.23;;;;;;;3.80;100.00;102396.75;5052797;28;20029;-34
2022/03/16 06:30:45;;;;;;;16.73;13.50;;;;;;;3.93;100.00;102401.78;5053079;28;20029;-34
2022/03/16 06:33:10;;;;;;;15.17;13.57;;;;;;;4.02;100.00;102409.75;5052517;28;20112;-35
2022/03/16 06:35:36;;;;;;;14.70;13.17;;;;;;;4.10;100.00;102411.69;5053155;28;20059;-35
2022/03/16 06:38:01;;;;;;;13.73;12.23;;;;;;;4.10;100.00;102401.84;5051591;28;20036;-35
2022/03/16 06:40:26;;;;;;;15.90;13.73;;;;;;;4.20;100.00;102409.81;5056215;28;20056;-36
2022/03/16 06:42:54;;;;;;;15.87;12.63;;;;;;;4.27;100.00;102412.72;5057064;28;20044;-36
2022/03/16 06:45:21;;;;;;;14.07;12.10;;;;;;;4.29;100.00;102411.53;5057227;28;20033;-36
2022/03/16 06:47:47;;;;;;;12.82;11.38;;;;;;;4.26;100.00;102393.13;5056287;28;20060;-35
2022/03/16 06:50:12;;;;;;;16.73;12.48;;;;;;;4.38;100.00;102417.84;5055527;28;20024;-35
2022/03/16 06:52:39;;;;;;;13.70;12.02;;;;;;;4.38;100.00;102416.00;5054961;28;20032;-35
2022/03/16 06:55:06;;;;;;;14.10;11.75;;;;;;;4.18;100.00;102368.09;5055185;28;20100;-35
2022/03/16 06:57:31;;;;;;;13.77;10.75;;;;;;;4.53;100.00;102402.06;5055076;28;20385;-35
2022/03/16 06:59:56;;;;;;;12.93;11.53;;;;;;;4.57;100.00;102393.59;5054885;28;20028;-35
2022/03/16 07:02:22;;;;;;;12.50;10.97;;;;;;;4.66;100.00;102391.81;5055090;28;20064;-35
2022/03/16 07:04:47;;;;;;;13.63;11.23;;;;;;;4.75;100.00;102390.06;5054800;28;20088;-35
2022/03/16 07:07:12;;;;;;;12.87;11.37;;;;;;;4.72;100.00;102363.56;5054769;28;20036;-35
2022/03/16 07:09:38;;;;;;;11.30;9.50;;;;;;;4.89;100.00;102376.09;5055247;28;20064;-35
2022/03/16 07:12:04;;;;;;;12.17;10.33;;;;;;;4.99;100.00;102381.38;5054867;28;20028;-35
2022/03/16 07:14:32;;;;;;;13.57;10.63;;;;;;;5.04;100.00;102368.34;5055340;28;20520;-36
2022/03/16 07:17:02;;;;;;;11.27;9.80;;;;;;;5.15;99.98;102366.22;5055293;28;20036;-36
2022/03/16 07:19:28;;;;;;;12.20;10.35;;;;;;;5.25;99.96;102366.09;5054704;28;20108;-35
2022/03/16 07:21:53;;;;;;;11.68;9.52;;;;;;;5.36;99.20;102365.00;5054893;28;20025;-35
2022/03/16 07:24:19;;;;;;;12.10;9.48;;;;;;;5.46;98.14;102352.28;5054546;28;20029;-36
2022/03/16 07:26:46;;;;;;;11.20;9.77;;;;;;;5.58;97.42;102358.22;5055271;28;20029;-35
2022/03/16 07:29:12;;;;;;;10.23;9.13;;;;;;;5.61;98.28;102341.78;5053360;28;20086;-35
2022/03/16 07:31:37;;;;;;;10.40;9.27;;;;;;;5.72;97.59;102343.38;5054946;28;20436;-35
2022/03/16 07:34:03;;;;;;;10.77;9.67;;;;;;;5.75;97.20;102343.84;5054633;28;20021;-35
2022/03/16 07:36:31;;;;;;;11.52;9.00;;;;;;;5.87;95.79;102345.25;5055063;28;20025;-35
2022/03/16 07:38:57;;;;;;;10.48;9.07;;;;;;;5.90;96.02;102342.25;5054404;28;20025;-35
2022/03/16 07:41:22;;;;;;;10.40;8.55;;;;;;;5.93;95.05;102335.72;5054712;28;20112;-35
2022/03/16 07:43:47;;;;;;;9.43;8.43;;;;;;;6.06;94.50;102348.69;5054472;28;20021;-35
2022/03/16 07:46:13;;;;;;;9.17;8.00;;;;;;;6.12;93.91;102337.28;5054525;28;20052;-35
2022/03/16 07:48:40;;;;;;;11.00;8.87;;;;;;;6.18;94.08;102348.19;5018326;28;1075878;-35
2022/03/16 07:51:06;;;;;;;11.35;8.60;;;;;;;6.22;93.18;102337.97;5055436;28;20110;-35
2022/03/16 07:53:31;;;;;;;8.87;7.97;;;;;;;6.35;93.72;102342.88;5054321;28;20025;-35
2022/03/16 07:55:57;;;;;;;10.00;8.13;;;;;;;6.45;92.84;102338.16;5055298;28;20255;-34
2022/03/16 07:58:23;;;;;;;10.40;8.48;;;;;;;6.45;92.91;102322.03;5055470;28;20021;-34
2022/03/16 08:00:49;;;;;;;11.27;9.18;;;;;;;6.58;91.42;102333.09;5055038;28;20025;-34
2022/03/16 08:03:14;;;;;;;9.05;8.15;;;;;;;6.71;91.98;102338.81;5055801;28;20500;-34
2022/03/16 08:05:40;;;;;;;9.27;8.13;;;;;;;6.77;90.57;102339.16;5055366;28;20021;-34
2022/03/16 08:08:06;;;;;;;9.13;7.65;;;;;;;6.83;90.36;102342.03;5055151;28;20037;-34
2022/03/16 08:10:31;;;;;;;9.55;8.65;;;;;;;6.84;89.79;102341.00;5055500;28;20029;-34
2022/03/16 08:12:57;;;;;;;9.88;8.20;;;;;;;6.90;90.09;102343.00;5055127;28;20111;-35
2022/03/16 08:15:23;;;;;;;11.38;8.70;;;;;;;7.01;91.29;102351.72;5055161;28;20037;-35
2022/03/16 08:17:48;;;;;;;8.85;8.00;;;;;;;7.06;89.16;102354.75;5054984;28;20046;-35
2022/03/16 08:20:13;;;;;;;9.17;8.27;;;;;;;7.14;89.06;102354.75;5054748;28;20446;-35
2022/03/16 08:22:39;;;;;;;8.83;7.93;;;;;;;7.16;88.29;102333.88;5054934;28;20033;-35
2022/03/16 08:25:10;;;;;;;8.77;7.88;;;;;;;7.23;89.17;102334.88;5055159;28;20028;-35
2022/03/16 08:27:37;;;;;;;9.68;8.65;;;;;;;7.32;88.10;102349.13;5055166;28;20064;-34
2022/03/16 08:30:06;;;;;;;9.45;8.40;;;;;;;7.31;87.30;102340.22;5054506;28;20474;-34
2022/03/16 08:32:32;;;;;;;9.90;8.55;;;;;;;7.31;87.18;102353.69;5054674;28;20044;-35
2022/03/16 08:34:57;;;;;;;9.57;8.17;;;;;;;7.34;87.45;102347.13;5054594;28;20037;-35
2022/03/16 08:37:22;;;;;;;10.30;8.57;;;;;;;7.40;86.99;102343.72;5053388;28;20132;-35
2022/03/16 08:39:48;;;;;;;14.73;9.03;;;;;;;7.52;87.56;102336.97;5054771;28;20280;-35
2022/03/16 08:42:15;;;;;;;10.60;9.57;;;;;;;7.64;85.94;102332.03;5052852;28;20039;-35
2022/03/16 08:44:42;;;;;;;9.48;8.18;;;;;;;7.78;86.38;102320.53;5054626;28;20101;-35
2022/03/16 08:47:08;;;;;;;9.18;8.27;;;;;;;7.82;85.35;102327.25;5054522;28;20131;-35
2022/03/16 08:49:33;;;;;;;;;;;;;;;8.02;85.41;102332.19;5054985;28;20044;-35
2022/03/16 08:51:59;;;;;;;10.32;8.48;;;;;;;8.13;84.20;102334.44;5054680;28;20371;-35
2022/03/16 08:54:25;;;;;;;9.68;8.40;;;;;;;8.24;84.27;102334.03;5054810;28;20108;-35
2022/03/16 08:56:52;;;;;;;9.32;8.43;;;;;;;8.41;83.06;102330.25;5054452;28;20048;-35
2022/03/16 08:59:19;;;;;;;9.75;8.27;;;;;;;8.47;82.37;102334.06;5054456;28;20033;-35
2022/03/16 09:01:45;;;;;;;10.70;8.07;;;;;;;8.49;82.38;102332.88;5053678;28;20025;-35
2022/03/16 09:04:10;;;;;;;9.27;8.38;;;;;;;8.57;82.26;102337.34;5054188;28;20380;-35
2022/03/16 09:06:36;;;;;;;11.20;8.70;;;;;;;8.74;82.56;102348.84;5054516;28;20025;-35
2022/03/16 09:09:01;;;;;;;8.63;7.83;;;;;;;8.65;81.09;102323.81;5054102;28;20019;-35
2022/03/16 09:11:27;;;;;;;9.43;8.52;;;;;;;8.86;79.74;102342.00;5053182;28;20480;-35
2022/03/16 09:13:53;;;;;;;9.80;8.90;;;;;;;8.93;79.64;102337.56;5053691;28;20492;-35
2022/03/16 09:16:18;;;;;;;;;;;;;;;9.01;79.60;102340.16;5053434;28;20025;-35
2022/03/16 09:18:45;;;;;;;9.40;8.50;;;;;;;9.09;78.76;102339.25;5053904;28;19909;-35
2022/03/16 09:21:15;;;;;;;9.10;8.20;;;;;;;9.05;78.42;102310.09;5053576;28;20071;-35
2022/03/16 09:23:40;;;;;;;9.07;8.18;;;;;;;9.23;78.53;102332.19;5053798;28;20028;-35
2022/03/16 09:26:06;;;;;;;9.57;8.67;;;;;;;9.38;77.87;102329.47;5053815;28;20079;-35
2022/03/16 09:28:33;;;;;;;9.57;8.38;;;;;;;9.30;77.61;102311.50;5053688;28;20029;-35
2022/03/16 09:30:58;;;;;;;9.38;8.48;;;;;;;9.39;76.14;102314.94;5053652;28;20028;-35
2022/03/16 09:33:24;;;;;;;11.03;9.40;;;;;;;9.39;75.86;102321.19;5053624;28;20036;-35
2022/03/16 09:35:51;;;;;;;9.20;8.30;;;;;;;9.54;75.74;102324.69;5054007;28;20278;-35
2022/03/16 09:38:17;;;;;;;10.23;8.80;;;;;;;9.66;75.53;102326.91;5053673;28;20063;-35
2022/03/16 09:40:43;;;;;;;9.73;8.82;;;;;;;9.74;76.01;102329.50;5053665;28;20052;-35
2022/03/16 09:43:11;;;;;;;10.30;9.05;;;;;;;9.71;76.29;102302.88;5053850;28;20457;-35
2022/03/16 09:45:46;;;;;;;9.10;8.13;;;;;;;9.93;75.42;102334.31;5053404;28;20033;-35
2022/03/16 09:48:13;;;;;;;9.32;8.43;;;;;;;9.95;75.60;102329.53;5053810;28;20076;-35
2022/03/16 09:50:41;;;;;;;9.63;8.73;;;;;;;10.00;74.62;102324.44;5053087;28;20036;-51
2022/03/16 09:53:08;;;;;;;9.57;8.68;;;;;;;10.17;74.74;102318.78;5052921;28;20086;-35
2022/03/16 09:55:33;;;;;;;12.32;8.63;;;;;;;10.15;74.31;102293.78;5053165;28;20113;-35
2022/03/16 09:57:59;;;;;;;10.40;9.02;;;;;;;10.30;73.91;102316.25;5053141;28;20112;-35
2022/03/16 10:00:24;;;;;;;9.97;8.77;;;;;;;10.34;73.46;102305.84;5053707;28;20040;-35
2022/03/16 10:02:49;;;;;;;9.43;8.53;;;;;;;10.47;72.15;102314.09;5053034;28;20032;-35
2022/03/16 10:05:15;;;;;;;9.45;8.55;;;;;;;10.50;72.59;102314.56;5052222;28;20040;-35
2022/03/16 10:07:45;;;;;;;10.30;9.35;;;;;;;10.53;72.42;102314.16;5053268;28;20025;-35
2022/03/16 10:15:38;;;;;;;10.27;8.43;;;;;;;10.69;71.46;102291.41;5066762;28;20048;-35
2022/03/16 10:18:04;;;;;;;11.63;9.30;;;;;;;10.75;71.36;102308.72;5053435;28;20017;-35
2022/03/16 10:20:37;;;;;;;10.13;9.15;;;;;;;10.74;71.81;102288.13;5053184;28;20496;-35
2022/03/16 10:23:02;;;;;;;10.27;9.00;;;;;;;10.78;70.88;102289.38;5053402;28;20086;-35
2022/03/16 10:25:43;;;;;;;9.43;8.50;;;;;;;10.89;70.80;102306.97;5053422;28;20033;-35
2022/03/16 10:28:12;;;;;;;10.52;9.48;;;;;;;10.99;71.10;102312.84;5053091;28;20036;-35
2022/03/16 10:30:55;;;;;;;9.90;8.95;;;;;;;11.09;71.41;102303.34;5053015;28;20029;-35
2022/03/16 10:33:21;;;;;;;9.63;8.63;;;;;;;11.19;71.61;102300.28;5052483;28;20044;-36
2022/03/16 10:35:56;;;;;;;;;;;;;;;11.38;71.81;102304.13;5053052;28;20028;-35
2022/03/16 10:38:22;;;;;;;10.77;8.98;;;;;;;11.46;70.85;102295.81;5053175;28;20007;-35
2022/03/16 10:40:49;;;;;;;10.10;9.10;;;;;;;11.46;70.17;102290.41;5068354;28;20037;-36
2022/03/16 10:49:10;;;;;;;10.95;9.50;;;;;;;11.77;70.87;102295.31;5053867;28;20152;-35
2022/03/16 10:51:36;;;;;;;9.90;8.90;;;;;;;11.72;69.55;102273.44;5052580;28;20477;-36
2022/03/16 10:54:03;;;;;;;;;;;;;;;11.85;70.30;102280.78;5052680;28;20481;-36
2022/03/16 10:56:30;;;;;;;10.73;9.73;;;;;;;11.86;69.61;102282.47;5052826;28;19916;-36
2022/03/16 10:58:57;;;;;;;9.82;8.82;;;;;;;11.91;69.27;102271.84;5052399;28;20029;-36
2022/03/16 11:01:25;;;;;;;9.95;8.95;;;;;;;11.87;68.96;102251.59;5051833;28;20071;-36
2022/03/16 11:03:52;;;;;;;9.75;8.80;;;;;;;11.95;68.79;102262.22;5052341;28;20043;-36
2022/03/16 11:06:20;;;;;;;;;;;;;;;12.09;69.84;102266.63;5052954;28;20035;-36
2022/03/16 11:08:47;;;;;;;9.45;8.48;;;;;;;12.14;68.82;102255.16;5052311;28;20336;-36
2022/03/16 11:13:58;;;;;;;9.18;8.27;;;;;;;12.18;68.43;102252.88;5052464;28;20044;-36
2022/03/16 11:16:24;;;;;;;9.85;8.77;;;;;;;12.27;68.00;102260.63;5052448;28;20029;-36
2022/03/16 11:18:51;;;;;;;8.70;7.90;;;;;;;12.21;67.62;102272.31;5052566;28;20112;-36
2022/03/16 11:21:48;;;;;;;9.15;8.35;;;;;;;12.21;68.80;102271.47;5052522;28;20047;-36
2022/03/16 11:24:18;;;;;;;8.48;7.68;;;;;;;12.14;68.19;102268.72;5052703;28;20082;-35
2022/03/16 11:27:10;;;;;;;8.77;7.93;;;;;;;12.03;69.06;102277.47;5056944;28;20024;-36
2022/03/16 11:30:06;;;;;;;11.13;8.55;;;;;;;12.06;69.75;102272.50;5035989;28;20120;-36